createdAt,value
2022-08-22T00:01:35.797Z,12.38
2022-08-22T00:03:11.174Z,12.57
2022-08-22T00:04:42.027Z,12.32
2022-08-22T00:07:49.305Z,12.37
2022-08-22T00:10:53.940Z,12.44
2022-08-22T00:14:01.667Z,12.50
2022-08-22T00:17:22.845Z,12.52
2022-08-22T00:20:29.888Z,12.48
2022-08-22T00:23:44.613Z,12.45
2022-08-22T00:26:49.416Z,12.44
2022-08-22T00:29:53.100Z,12.37
2022-08-22T00:32:57.501Z,12.30
2022-08-22T00:36:08.034Z,11.74
2022-08-22T00:39:28.533Z,11.58
2022-08-22T00:42:49.013Z,11.76
2022-08-22T00:46:09.330Z,11.95
2022-08-22T00:49:10.909Z,12.07
2022-08-22T00:52:30.817Z,11.62
2022-08-22T00:55:41.695Z,11.32
2022-08-22T00:58:49.548Z,11.42
2022-08-22T01:02:01.552Z,11.48
2022-08-22T01:05:07.740Z,11.65
2022-08-22T01:08:32.697Z,11.80
2022-08-22T01:11:40.266Z,11.98
2022-08-22T01:15:02.169Z,12.14
2022-08-22T01:18:22.585Z,12.25
2022-08-22T01:21:43.025Z,12.33
2022-08-22T01:25:04.517Z,12.49
2022-08-22T01:28:12.666Z,12.58
2022-08-22T01:31:33.410Z,12.69
2022-08-22T01:34:58.303Z,12.82
2022-08-22T01:38:18.442Z,12.87
2022-08-22T01:41:26.149Z,12.89
2022-08-22T01:44:45.958Z,12.86
2022-08-22T01:47:50.044Z,12.88
2022-08-22T01:51:02.297Z,12.95
2022-08-22T01:54:22.412Z,12.94
2022-08-22T01:57:24.409Z,12.94
2022-08-22T02:00:35.543Z,12.89
2022-08-22T02:03:40.356Z,12.83
2022-08-22T02:07:00.860Z,12.84
2022-08-22T02:10:14.772Z,12.75
2022-08-22T02:13:23.289Z,12.73
2022-08-22T02:16:30.853Z,12.61
2022-08-22T02:19:38.478Z,12.55
2022-08-22T02:22:49.882Z,12.56
2022-08-22T02:26:03.826Z,12.58
2022-08-22T02:29:05.467Z,12.61
2022-08-22T02:32:10.522Z,12.63
2022-08-22T02:35:21.085Z,12.55
2022-08-22T02:38:25.651Z,12.56
2022-08-22T02:41:27.269Z,12.57
2022-08-22T02:44:36.776Z,12.61
2022-08-22T02:47:57.367Z,12.52
2022-08-22T02:51:01.454Z,12.35
2022-08-22T02:54:14.583Z,12.29
2022-08-22T02:57:20.650Z,12.37
2022-08-22T03:00:32.146Z,12.51
2022-08-22T03:03:38.474Z,12.57
2022-08-22T03:06:42.694Z,12.53
2022-08-22T03:09:47.015Z,12.48
2022-08-22T03:12:58.429Z,12.31
2022-08-22T03:16:02.662Z,12.18
2022-08-22T03:19:18.982Z,11.89
2022-08-22T03:22:39.640Z,11.56
2022-08-22T03:25:46.612Z,11.31
2022-08-22T03:28:59.601Z,11.30
2022-08-22T03:32:15.998Z,11.34
2022-08-22T03:35:31.074Z,11.23
2022-08-22T03:38:32.698Z,11.22
2022-08-22T03:41:41.929Z,11.19
2022-08-22T03:45:07.133Z,11.23
2022-08-22T03:48:18.030Z,11.27
2022-08-22T03:51:37.970Z,11.22
2022-08-22T03:54:50.355Z,11.23
2022-08-22T03:57:51.985Z,11.27
2022-08-22T04:00:56.064Z,11.30
2022-08-22T04:04:10.550Z,11.41
2022-08-22T04:07:32.380Z,11.49
2022-08-22T04:10:51.715Z,11.63
2022-08-22T04:13:53.518Z,11.68
2022-08-22T04:17:31.030Z,11.67
2022-08-22T04:20:51.490Z,11.67
2022-08-22T04:24:05.005Z,11.64
2022-08-22T04:27:06.621Z,11.58
2022-08-22T04:30:25.429Z,11.53
2022-08-22T04:33:32.019Z,11.43
2022-08-22T04:36:41.009Z,11.39
2022-08-22T04:39:51.708Z,11.40
2022-08-22T04:42:54.696Z,11.45
2022-08-22T04:46:05.841Z,11.43
2022-08-22T04:49:09.338Z,11.46
2022-08-22T04:52:29.864Z,11.47
2022-08-22T04:55:37.651Z,11.38
2022-08-22T04:58:39.226Z,11.24
2022-08-22T05:01:57.837Z,11.27
2022-08-22T05:05:04.390Z,11.35
2022-08-22T05:08:06.091Z,11.45
2022-08-22T05:11:09.465Z,11.73
2022-08-22T05:14:24.098Z,12.07
2022-08-22T05:17:26.124Z,12.03
2022-08-22T05:20:27.993Z,11.95
2022-08-22T05:23:30.793Z,11.89
2022-08-22T05:26:39.806Z,11.80
2022-08-22T05:29:42.993Z,11.85
2022-08-22T05:32:49.473Z,11.90
2022-08-22T05:35:57.728Z,11.94
2022-08-22T05:39:00.810Z,11.96
2022-08-22T05:42:02.992Z,12.02
2022-08-22T05:45:06.878Z,12.06
2022-08-22T05:48:18.379Z,12.06
2022-08-22T05:51:22.187Z,12.06
2022-08-22T05:54:33.705Z,12.06
2022-08-22T05:57:37.384Z,12.05
2022-08-22T06:00:40.149Z,12.09
2022-08-22T06:03:46.028Z,12.09
2022-08-22T06:06:52.207Z,12.07
2022-08-22T06:10:03.159Z,12.09
2022-08-22T06:13:12.321Z,12.14
2022-08-22T06:16:16.989Z,12.15
2022-08-22T06:19:20.199Z,12.12
2022-08-22T06:22:26.451Z,12.10
2022-08-22T06:25:32.936Z,12.10
2022-08-22T06:28:37.057Z,12.07
2022-08-22T06:31:42.725Z,12.00
2022-08-22T06:34:45.205Z,12.02
2022-08-22T06:37:46.786Z,12.03
2022-08-22T06:40:49.469Z,11.97
2022-08-22T06:43:52.808Z,12.03
2022-08-22T06:46:55.677Z,12.25
2022-08-22T06:49:58.595Z,12.50
2022-08-22T06:53:02.690Z,12.56
2022-08-22T06:56:06.112Z,12.58
2022-08-22T06:59:09.385Z,12.48
2022-08-22T07:02:31.205Z,12.32
2022-08-22T07:05:36.328Z,12.25
2022-08-22T07:08:39.261Z,12.42
2022-08-22T07:11:41.102Z,12.49
2022-08-22T07:14:43.927Z,12.63
2022-08-22T07:17:50.643Z,12.68
2022-08-22T07:20:55.136Z,12.75
2022-08-22T07:23:57.416Z,13.07
2022-08-22T07:27:18.804Z,13.13
2022-08-22T07:30:27.475Z,13.30
2022-08-22T07:33:46.587Z,13.18
2022-08-22T07:36:50.214Z,13.44
2022-08-22T07:39:51.853Z,13.52
2022-08-22T07:42:55.425Z,13.67
2022-08-22T07:45:58.739Z,13.79
2022-08-22T07:49:09.879Z,13.83
2022-08-22T07:52:12.203Z,13.65
2022-08-22T07:55:18.386Z,13.80
2022-08-22T07:58:20.020Z,13.92
2022-08-22T08:01:22.360Z,13.90
2022-08-22T08:04:26.243Z,13.72
2022-08-22T08:07:29.068Z,13.49
2022-08-22T08:10:32.629Z,13.36
2022-08-22T08:13:35.815Z,13.42
2022-08-22T08:16:44.751Z,13.55
2022-08-22T08:19:47.329Z,13.64
2022-08-22T08:22:49.030Z,13.68
2022-08-22T08:25:53.410Z,13.76
2022-08-22T08:28:55.705Z,13.75
2022-08-22T08:31:57.326Z,13.83
2022-08-22T08:35:07.179Z,13.86
2022-08-22T08:38:22.590Z,13.77
2022-08-22T08:41:31.179Z,13.77
2022-08-22T08:44:42.088Z,13.72
2022-08-22T08:47:43.758Z,13.72
2022-08-22T08:51:09.251Z,13.75
2022-08-22T08:54:17.846Z,13.89
2022-08-22T08:57:21.350Z,14.05
2022-08-22T09:00:43.434Z,14.15
2022-08-22T09:03:45.066Z,14.21
2022-08-22T09:07:05.920Z,14.12
2022-08-22T09:10:43.809Z,14.14
2022-08-22T09:13:45.916Z,14.14
2022-08-22T09:16:52.638Z,14.14
2022-08-22T09:20:17.693Z,14.15
2022-08-22T09:23:21.154Z,14.39
2022-08-22T09:26:52.175Z,14.45
2022-08-22T09:29:57.227Z,14.54
2022-08-22T09:33:03.417Z,14.62
2022-08-22T09:36:14.703Z,14.57
2022-08-22T09:39:19.213Z,14.63
2022-08-22T09:42:26.232Z,14.67
2022-08-22T09:45:40.026Z,14.80
2022-08-22T09:48:53.681Z,14.82
2022-08-22T09:52:34.037Z,14.83
2022-08-22T09:55:41.138Z,14.70
2022-08-22T09:58:44.189Z,14.72
2022-08-22T10:02:06.030Z,14.71
2022-08-22T10:05:10.522Z,14.76
2022-08-22T10:08:13.764Z,14.86
2022-08-22T10:11:18.945Z,15.08
2022-08-22T10:14:22.836Z,15.25
2022-08-22T10:17:31.460Z,15.47
2022-08-22T10:20:36.390Z,15.87
2022-08-22T10:23:40.672Z,16.18
2022-08-22T10:26:45.357Z,16.41
2022-08-22T10:29:56.294Z,16.55
2022-08-22T10:33:01.448Z,16.69
2022-08-22T10:36:07.893Z,16.69
2022-08-22T10:39:16.918Z,16.83
2022-08-22T10:42:28.709Z,16.85
2022-08-22T10:45:37.962Z,16.77
2022-08-22T10:48:47.021Z,16.84
2022-08-22T10:51:51.210Z,16.91
2022-08-22T10:54:57.690Z,16.92
2022-08-22T10:58:06.028Z,16.73
2022-08-22T11:01:37.980Z,16.82
2022-08-22T11:04:34.354Z,16.87
2022-08-22T11:07:54.789Z,17.00
2022-08-22T11:11:03.985Z,17.22
2022-08-22T11:14:15.033Z,17.28
2022-08-22T11:17:30.292Z,17.50
2022-08-22T11:20:54.529Z,17.85
2022-08-22T11:24:17.475Z,18.72
2022-08-22T11:27:39.934Z,19.59
2022-08-22T11:31:03.621Z,20.41
2022-08-22T11:34:27.896Z,20.91
2022-08-22T11:37:43.850Z,20.88
2022-08-22T11:40:46.962Z,20.06
2022-08-22T11:43:59.450Z,19.89
2022-08-22T11:47:09.101Z,19.84
2022-08-22T11:50:22.205Z,19.93
2022-08-22T11:53:36.149Z,20.61
2022-08-22T11:56:50.053Z,20.82
2022-08-22T12:00:05.126Z,20.70
2022-08-22T12:03:18.361Z,20.40
2022-08-22T12:06:24.994Z,20.13
2022-08-22T12:09:27.896Z,19.97
2022-08-22T12:12:31.615Z,20.40
2022-08-22T12:15:54.729Z,20.43
2022-08-22T12:18:56.338Z,20.59
2022-08-22T12:22:30.219Z,21.17
2022-08-22T12:25:32.044Z,22.04
2022-08-22T12:28:40.090Z,22.77
2022-08-22T12:32:14.603Z,22.69
2022-08-22T12:35:29.966Z,22.49
2022-08-22T12:38:37.960Z,22.04
2022-08-22T12:42:15.394Z,21.41
2022-08-22T12:45:19.780Z,20.90
2022-08-22T12:48:21.337Z,20.49
2022-08-22T12:51:24.628Z,20.21
2022-08-22T12:54:41.303Z,20.13
2022-08-22T12:57:50.503Z,20.04
2022-08-22T13:00:59.266Z,19.68
2022-08-22T13:04:02.971Z,19.41
2022-08-22T13:07:19.914Z,19.30
2022-08-22T13:10:31.162Z,19.23
2022-08-22T13:13:37.129Z,19.12
2022-08-22T13:16:48.983Z,19.05
2022-08-22T13:19:54.466Z,19.05
2022-08-22T13:22:56.073Z,19.07
2022-08-22T13:26:01.193Z,19.08
2022-08-22T13:29:24.532Z,19.08
2022-08-22T13:32:44.475Z,18.98
2022-08-22T13:35:52.399Z,19.05
2022-08-22T13:39:03.532Z,19.15
2022-08-22T13:42:07.659Z,19.28
2022-08-22T13:45:23.598Z,19.36
2022-08-22T13:48:28.571Z,19.44
2022-08-22T13:51:44.480Z,19.53
2022-08-22T13:54:49.036Z,19.66
2022-08-22T13:58:17.051Z,19.80
2022-08-22T14:01:21.523Z,20.02
2022-08-22T14:04:36.258Z,20.24
2022-08-22T14:07:39.127Z,20.52
2022-08-22T14:10:44.062Z,20.60
2022-08-22T14:13:47.849Z,20.71
2022-08-22T14:16:51.896Z,20.71
2022-08-22T14:20:06.924Z,20.51
2022-08-22T14:23:23.965Z,20.47
2022-08-22T14:26:33.026Z,20.37
2022-08-22T14:29:42.149Z,20.38
2022-08-22T14:32:49.568Z,20.48
2022-08-22T14:35:53.095Z,20.50
2022-08-22T14:38:59.653Z,20.57
2022-08-22T14:42:17.545Z,20.67
2022-08-22T14:45:21.955Z,20.75
2022-08-22T14:48:31.009Z,20.84
2022-08-22T14:51:33.780Z,20.82
2022-08-22T14:54:35.848Z,20.82
2022-08-22T14:57:41.193Z,20.70
2022-08-22T15:00:44.362Z,20.70
2022-08-22T15:03:51.687Z,20.65
2022-08-22T15:06:54.374Z,20.58
2022-08-22T15:10:02.994Z,20.42
2022-08-22T15:13:07.888Z,20.32
2022-08-22T15:16:16.600Z,20.29
2022-08-22T15:19:24.463Z,20.28
2022-08-22T15:22:27.723Z,20.23
2022-08-22T15:25:31.172Z,20.36
2022-08-22T15:28:35.865Z,20.51
2022-08-22T15:31:52.064Z,20.67
2022-08-22T15:34:54.102Z,20.89
2022-08-22T15:37:56.005Z,20.94
2022-08-22T15:41:17.742Z,20.96
2022-08-22T15:44:32.453Z,20.87
2022-08-22T15:47:36.209Z,20.73
2022-08-22T15:50:39.481Z,20.70
2022-08-22T15:53:43.528Z,20.68
2022-08-22T15:57:03.914Z,20.65
2022-08-22T16:00:28.033Z,20.66
2022-08-22T16:03:30.265Z,20.63
2022-08-22T16:06:51.522Z,20.59
2022-08-22T16:09:53.856Z,20.59
2022-08-22T16:13:14.009Z,20.29
2022-08-22T16:16:24.813Z,20.18
2022-08-22T16:19:27.341Z,20.04
2022-08-22T16:22:47.483Z,19.92
2022-08-22T16:25:52.920Z,19.82
2022-08-22T16:29:03.975Z,19.86
2022-08-22T16:32:06.891Z,19.90
2022-08-22T16:35:08.694Z,20.04
2022-08-22T16:38:10.339Z,20.16
2022-08-22T16:41:28.401Z,20.22
2022-08-22T16:44:29.968Z,20.22
2022-08-22T16:47:36.205Z,20.99
2022-08-22T16:50:37.790Z,20.51
2022-08-22T16:53:45.757Z,20.37
2022-08-22T16:56:56.655Z,20.68
2022-08-22T17:00:22.739Z,20.87
2022-08-22T17:03:27.629Z,21.47
2022-08-22T17:06:32.337Z,21.52
2022-08-22T17:09:36.945Z,21.69
2022-08-22T17:12:46.303Z,22.79
2022-08-22T17:16:02.463Z,23.41
2022-08-22T17:19:05.063Z,21.91
2022-08-22T17:22:10.397Z,21.03
2022-08-22T17:25:19.619Z,20.56
2022-08-22T17:28:22.463Z,20.48
2022-08-22T17:31:24.182Z,20.05
2022-08-22T17:34:32.475Z,19.71
2022-08-22T17:37:52.614Z,19.69
2022-08-22T17:40:57.026Z,20.25
2022-08-22T17:44:02.686Z,21.47
2022-08-22T17:47:08.713Z,20.83
2022-08-22T17:50:16.511Z,20.30
2022-08-22T17:53:18.093Z,20.53
2022-08-22T17:56:20.592Z,19.99
2022-08-22T17:59:28.282Z,19.86
2022-08-22T18:02:33.672Z,19.47
2022-08-22T18:05:45.077Z,19.21
2022-08-22T18:12:35.157Z,18.78
2022-08-22T18:15:52.523Z,18.68
2022-08-22T18:18:54.200Z,18.59
2022-08-22T18:22:14.921Z,18.46
2022-08-22T18:25:19.549Z,18.34
2022-08-22T18:28:23.058Z,18.27
2022-08-22T18:31:24.619Z,18.16
2022-08-22T18:34:28.981Z,18.06
2022-08-22T18:37:33.003Z,17.95
2022-08-22T18:40:37.061Z,17.79
2022-08-22T18:43:51.608Z,17.74
2022-08-22T18:46:53.477Z,17.68
2022-08-22T18:49:55.444Z,17.59
2022-08-22T18:52:57.790Z,17.51
2022-08-22T18:56:10.513Z,17.47
2022-08-22T18:59:25.868Z,17.50
2022-08-22T19:02:34.045Z,17.46
2022-08-22T19:05:45.380Z,17.49
2022-08-22T19:08:53.527Z,17.54
2022-08-22T19:11:55.778Z,17.44
2022-08-22T19:15:09.945Z,17.40
2022-08-22T19:18:23.716Z,17.36
2022-08-22T19:21:45.843Z,17.33
2022-08-22T19:25:09.051Z,17.25
2022-08-22T19:28:11.389Z,17.24
2022-08-22T19:31:31.774Z,17.24
2022-08-22T19:34:47.856Z,17.24
2022-08-22T19:37:56.790Z,17.20
2022-08-22T19:40:58.682Z,17.15
2022-08-22T19:44:00.226Z,17.14
2022-08-22T19:47:28.930Z,17.14
2022-08-22T19:50:33.087Z,17.14
2022-08-22T19:53:37.735Z,17.15
2022-08-22T19:56:59.589Z,17.15
2022-08-22T20:00:12.362Z,17.15
2022-08-22T20:03:19.809Z,17.09
2022-08-22T20:06:43.131Z,17.06
2022-08-22T20:09:52.976Z,17.02
2022-08-22T20:12:59.629Z,16.98
2022-08-22T20:16:13.665Z,16.92
2022-08-22T20:19:16.625Z,16.81
2022-08-22T20:22:30.344Z,16.72
2022-08-22T20:25:43.343Z,16.66
2022-08-22T20:28:47.129Z,16.55
2022-08-22T20:31:52.667Z,16.42
2022-08-22T20:34:58.689Z,16.26
2022-08-22T20:38:06.627Z,16.14
2022-08-22T20:41:20.996Z,16.08
2022-08-22T20:44:24.262Z,16.08
2022-08-22T20:47:27.060Z,16.02
2022-08-22T20:50:41.330Z,16.02
2022-08-22T20:53:43.050Z,15.93
2022-08-22T20:56:52.964Z,15.84
2022-08-22T20:59:55.449Z,15.84
2022-08-22T21:03:05.624Z,15.87
2022-08-22T21:06:14.660Z,15.87
2022-08-22T21:09:39.221Z,15.89
2022-08-22T21:12:40.850Z,15.90
2022-08-22T21:15:47.028Z,15.88
2022-08-22T21:18:49.603Z,15.88
2022-08-22T21:21:51.635Z,15.85
2022-08-22T21:24:58.206Z,15.77
2022-08-22T21:28:00.899Z,15.76
2022-08-22T21:31:12.924Z,15.75
2022-08-22T21:34:15.535Z,15.72
2022-08-22T21:37:18.562Z,15.64
2022-08-22T21:40:22.694Z,15.61
2022-08-22T21:43:29.217Z,15.65
2022-08-22T21:46:30.818Z,15.70
2022-08-22T21:49:33.502Z,15.75
2022-08-22T21:52:39.382Z,15.79
2022-08-22T21:55:44.683Z,15.81
2022-08-22T21:58:46.413Z,15.78
2022-08-22T22:01:48.005Z,15.74
2022-08-22T22:04:51.146Z,15.74
2022-08-22T22:07:53.897Z,15.73
2022-08-22T22:10:56.878Z,15.69
2022-08-22T22:13:58.975Z,15.66
2022-08-22T22:17:00.686Z,15.68
2022-08-22T22:20:02.496Z,15.68
2022-08-22T22:23:04.120Z,15.71
2022-08-22T22:26:05.854Z,15.65
2022-08-22T22:29:09.184Z,15.61
2022-08-22T22:32:12.843Z,15.59
2022-08-22T22:35:14.510Z,15.56
2022-08-22T22:38:20.564Z,15.51
2022-08-22T22:41:25.823Z,15.43
2022-08-22T22:44:27.782Z,15.41
2022-08-22T22:47:30.017Z,15.45
2022-08-22T22:50:31.647Z,15.37
2022-08-22T22:53:38.254Z,15.28
2022-08-22T22:56:42.162Z,15.25
2022-08-22T22:59:49.585Z,15.25
2022-08-22T23:02:52.775Z,15.24
2022-08-22T23:05:54.402Z,15.14
2022-08-22T23:08:56.188Z,15.12
2022-08-22T23:11:57.818Z,15.17
2022-08-22T23:14:59.409Z,15.13
2022-08-22T23:18:01.264Z,15.08
2022-08-22T23:21:10.394Z,15.06
2022-08-22T23:24:12.577Z,14.92
2022-08-22T23:27:14.216Z,14.83
2022-08-22T23:30:15.854Z,14.76
2022-08-22T23:33:17.515Z,14.73
2022-08-22T23:36:19.876Z,14.78
2022-08-22T23:39:22.214Z,14.83
2022-08-22T23:42:23.822Z,14.77
2022-08-22T23:45:25.498Z,14.71
2022-08-22T23:48:27.124Z,14.66
2022-08-22T23:51:28.852Z,14.70
2022-08-22T23:54:30.514Z,14.77
2022-08-22T23:57:32.442Z,14.83
